createdAt,value
2022-08-09T00:02:19.385Z,70.93
2022-08-09T00:06:18.424Z,71.27
2022-08-09T00:08:57.534Z,71.37
2022-08-09T00:12:04.583Z,71.01
2022-08-09T00:15:08.684Z,70.99
2022-08-09T00:18:17.478Z,71.30
2022-08-09T00:21:25.586Z,71.56
2022-08-09T00:24:28.188Z,71.77
2022-08-09T00:27:30.356Z,71.74
2022-08-09T00:30:38.242Z,71.92
2022-08-09T00:33:51.102Z,71.98
2022-08-09T00:36:55.421Z,72.35
2022-08-09T00:40:13.567Z,72.12
2022-08-09T00:44:20.482Z,72.19
2022-08-09T00:46:57.844Z,71.94
2022-08-09T00:53:25.296Z,72.40
2022-08-09T00:56:38.115Z,72.65
2022-08-09T00:59:46.652Z,72.53
2022-08-09T01:02:58.734Z,72.37
2022-08-09T01:06:17.495Z,72.23
2022-08-09T01:09:24.935Z,72.32
2022-08-09T01:12:41.744Z,72.15
2022-08-09T01:15:52.513Z,72.30
2022-08-09T01:19:02.691Z,72.73
2022-08-09T01:22:29.293Z,72.76
2022-08-09T01:25:42.199Z,72.84
2022-08-09T01:28:55.237Z,72.93
2022-08-09T01:32:37.747Z,72.81
2022-08-09T01:35:37.233Z,73.15
2022-08-09T01:38:44.276Z,73.53
2022-08-09T01:41:53.660Z,73.88
2022-08-09T01:45:13.099Z,74.12
2022-08-09T01:48:16.924Z,74.16
2022-08-09T01:51:22.824Z,74.48
2022-08-09T01:54:32.810Z,74.69
2022-08-09T01:57:40.097Z,74.83
2022-08-09T02:00:50.526Z,75.15
2022-08-09T02:03:53.653Z,75.47
2022-08-09T02:07:15.565Z,75.53
2022-08-09T02:10:32.834Z,75.17
2022-08-09T02:13:40.333Z,75.64
2022-08-09T02:16:59.948Z,75.88
2022-08-09T02:20:08.982Z,75.61
2022-08-09T02:23:17.167Z,76.11
2022-08-09T02:26:27.176Z,76.38
2022-08-09T02:29:31.420Z,76.19
2022-08-09T02:32:39.043Z,75.98
2022-08-09T02:36:01.653Z,75.94
2022-08-09T02:39:07.619Z,75.76
2022-08-09T02:42:26.516Z,75.81
2022-08-09T02:45:30.487Z,75.84
2022-08-09T02:48:36.783Z,75.99
2022-08-09T02:51:45.601Z,75.91
2022-08-09T02:54:54.704Z,75.81
2022-08-09T02:58:35.413Z,75.90
2022-08-09T03:01:29.290Z,75.73
2022-08-09T03:04:50.834Z,75.68
2022-08-09T03:07:54.927Z,75.57
2022-08-09T03:10:58.415Z,75.52
2022-08-09T03:14:02.761Z,75.61
2022-08-09T03:17:09.358Z,75.68
2022-08-09T03:20:25.077Z,75.76
2022-08-09T03:23:31.595Z,75.98
2022-08-09T03:26:33.790Z,76.04
2022-08-09T03:29:43.147Z,76.05
2022-08-09T03:32:59.043Z,76.18
2022-08-09T03:36:16.413Z,76.12
2022-08-09T03:39:19.153Z,75.98
2022-08-09T03:42:21.297Z,76.30
2022-08-09T03:46:05.159Z,76.14
2022-08-09T03:48:55.774Z,76.32
2022-08-09T03:52:03.840Z,76.50
2022-08-09T03:55:09.831Z,76.62
2022-08-09T03:58:16.318Z,76.89
2022-08-09T04:01:22.525Z,76.85
2022-08-09T04:04:36.111Z,76.97
2022-08-09T04:07:53.153Z,77.20
2022-08-09T04:11:01.460Z,77.11
2022-08-09T04:14:54.257Z,77.08
2022-08-09T04:17:25.833Z,77.11
2022-08-09T04:20:31.310Z,77.27
2022-08-09T04:23:53.808Z,77.51
2022-08-09T04:26:56.831Z,77.72
2022-08-09T04:29:58.538Z,77.86
2022-08-09T04:33:01.177Z,77.66
2022-08-09T04:36:03.819Z,77.83
2022-08-09T04:39:10.570Z,78.16
2022-08-09T04:42:15.874Z,78.21
2022-08-09T04:45:20.640Z,78.16
2022-08-09T04:48:23.839Z,78.38
2022-08-09T04:51:35.191Z,78.46
2022-08-09T04:54:40.319Z,78.71
2022-08-09T04:57:54.115Z,78.83
2022-08-09T05:01:03.959Z,78.96
2022-08-09T05:04:17.797Z,78.84
2022-08-09T05:07:20.294Z,78.31
2022-08-09T05:10:23.567Z,78.25
2022-08-09T05:13:25.334Z,78.64
2022-08-09T05:16:32.023Z,78.78
2022-08-09T05:19:44.623Z,78.82
2022-08-09T05:23:54.967Z,79.04
2022-08-09T05:26:22.366Z,79.13
2022-08-09T05:29:35.752Z,79.17
2022-08-09T05:32:37.865Z,78.75
2022-08-09T05:35:46.865Z,78.37
2022-08-09T05:38:51.946Z,78.45
2022-08-09T05:41:55.014Z,78.14
2022-08-09T05:45:00.490Z,77.78
2022-08-09T05:48:02.237Z,77.48
2022-08-09T05:51:41.529Z,77.13
2022-08-09T05:54:25.749Z,76.75
2022-08-09T05:57:50.890Z,76.89
2022-08-09T06:00:50.655Z,76.68
2022-08-09T06:03:58.209Z,76.53
2022-08-09T06:07:00.335Z,76.50
2022-08-09T06:10:03.241Z,76.29
2022-08-09T06:13:18.430Z,75.93
2022-08-09T06:16:23.530Z,76.19
2022-08-09T06:19:25.473Z,76.22
2022-08-09T06:22:30.346Z,75.70
2022-08-09T06:25:32.217Z,76.03
2022-08-09T06:28:38.775Z,75.97
2022-08-09T06:32:09.237Z,75.68
2022-08-09T06:35:07.597Z,75.05
2022-08-09T06:38:09.558Z,74.62
2022-08-09T06:41:18.949Z,74.70
2022-08-09T06:44:22.596Z,74.20
2022-08-09T06:47:25.705Z,74.17
2022-08-09T06:50:41.118Z,73.79
2022-08-09T06:53:43.057Z,73.90
2022-08-09T06:56:46.492Z,73.88
2022-08-09T07:00:49.993Z,73.41
2022-08-09T07:03:28.516Z,73.32
2022-08-09T07:06:31.918Z,73.45
2022-08-09T07:09:55.305Z,73.12
2022-08-09T07:12:57.244Z,73.35
2022-08-09T07:16:42.870Z,73.09
2022-08-09T07:19:23.915Z,72.67
2022-08-09T07:22:34.335Z,73.08
2022-08-09T07:25:38.885Z,72.38
2022-08-09T07:29:01.288Z,72.25
2022-08-09T07:32:09.105Z,72.10
2022-08-09T07:35:12.505Z,72.37
2022-08-09T07:38:16.528Z,72.26
2022-08-09T07:41:18.672Z,71.91
2022-08-09T07:44:24.031Z,71.61
2022-08-09T07:47:49.248Z,71.77
2022-08-09T07:51:09.824Z,71.37
2022-08-09T07:54:27.838Z,70.97
2022-08-09T07:57:36.124Z,70.79
2022-08-09T08:00:38.697Z,69.98
2022-08-09T08:04:02.727Z,69.68
2022-08-09T08:07:15.000Z,69.56
2022-08-09T08:10:27.320Z,69.61
2022-08-09T08:13:29.164Z,69.51
2022-08-09T08:16:51.112Z,69.19
2022-08-09T08:20:13.023Z,68.48
2022-08-09T08:23:17.827Z,68.68
2022-08-09T08:26:41.687Z,67.80
2022-08-09T08:29:48.594Z,67.22
2022-08-09T08:32:54.085Z,66.74
2022-08-09T08:36:05.690Z,65.96
2022-08-09T08:39:10.877Z,66.17
2022-08-09T08:42:13.297Z,66.04
2022-08-09T08:45:16.782Z,66.07
2022-08-09T08:48:19.566Z,65.52
2022-08-09T08:51:23.548Z,64.83
2022-08-09T08:54:29.958Z,64.19
2022-08-09T08:57:35.280Z,64.37
2022-08-09T09:00:38.446Z,64.48
2022-08-09T09:03:42.904Z,63.74
2022-08-09T09:06:49.111Z,63.54
2022-08-09T09:10:02.363Z,63.33
2022-08-09T09:13:09.567Z,63.13
2022-08-09T09:16:14.037Z,62.08
2022-08-09T09:22:56.902Z,60.98
2022-08-09T09:26:11.976Z,59.99
2022-08-09T09:29:16.758Z,60.38
2022-08-09T09:32:34.518Z,61.02
2022-08-09T09:36:00.761Z,60.37
2022-08-09T09:39:09.803Z,59.45
2022-08-09T09:42:22.028Z,59.62
2022-08-09T09:45:26.155Z,58.50
2022-08-09T09:48:33.339Z,58.54
2022-08-09T09:51:38.215Z,58.15
2022-08-09T09:54:48.709Z,57.81
2022-08-09T09:58:03.460Z,58.47
2022-08-09T10:01:31.073Z,58.99
2022-08-09T10:04:40.640Z,58.45
2022-08-09T10:08:01.194Z,58.21
2022-08-09T10:11:59.918Z,58.42
2022-08-09T10:14:47.975Z,57.58
2022-08-09T10:17:56.239Z,57.35
2022-08-09T10:21:07.739Z,57.18
2022-08-09T10:24:25.686Z,55.55
2022-08-09T10:27:57.171Z,56.12
2022-08-09T10:34:32.823Z,56.06
2022-08-09T10:37:38.408Z,55.43
2022-08-09T10:40:44.646Z,53.79
2022-08-09T10:43:59.731Z,54.59
2022-08-09T10:48:14.397Z,54.02
2022-08-09T10:51:09.347Z,53.56
2022-08-09T10:54:13.158Z,53.88
2022-08-09T10:57:15.449Z,53.89
2022-08-09T11:00:35.291Z,53.94
2022-08-09T11:04:03.972Z,53.34
2022-08-09T11:07:57.892Z,52.38
2022-08-09T11:10:56.409Z,53.29
2022-08-09T11:14:38.304Z,53.22
2022-08-09T11:17:45.684Z,52.33
2022-08-09T11:20:49.791Z,51.95
2022-08-09T11:24:01.732Z,51.41
2022-08-09T11:27:25.421Z,51.89
2022-08-09T11:30:47.813Z,51.62
2022-08-09T11:33:54.433Z,51.05
2022-08-09T11:36:56.852Z,49.57
2022-08-09T11:40:03.969Z,50.13
2022-08-09T11:43:07.617Z,50.60
2022-08-09T11:46:18.484Z,50.12
2022-08-09T11:50:54.059Z,50.44
2022-08-09T11:53:59.886Z,49.65
2022-08-09T11:56:48.254Z,49.24
2022-08-09T11:59:52.423Z,48.93
2022-08-09T12:02:55.809Z,48.40
2022-08-09T12:05:59.139Z,49.36
2022-08-09T12:09:05.118Z,48.12
2022-08-09T12:12:13.120Z,48.02
2022-08-09T12:15:50.084Z,48.71
2022-08-09T12:18:48.998Z,48.19
2022-08-09T12:22:00.079Z,47.95
2022-08-09T12:25:12.605Z,48.05
2022-08-09T12:29:15.412Z,48.26
2022-08-09T12:31:58.240Z,46.83
2022-08-09T12:35:03.070Z,46.34
2022-08-09T12:38:29.563Z,45.94
2022-08-09T12:41:44.643Z,46.92
2022-08-09T12:44:52.492Z,44.67
2022-08-09T12:47:57.904Z,45.78
2022-08-09T12:51:00.185Z,45.48
2022-08-09T12:54:07.505Z,44.63
2022-08-09T12:57:11.901Z,45.66
2022-08-09T13:00:25.140Z,45.25
2022-08-09T13:03:53.504Z,44.56
2022-08-09T13:06:50.650Z,45.79
2022-08-09T13:10:01.778Z,45.62
2022-08-09T13:13:09.606Z,45.17
2022-08-09T13:16:17.421Z,44.57
2022-08-09T13:19:25.040Z,43.96
2022-08-09T13:23:05.540Z,43.86
2022-08-09T13:26:10.378Z,44.33
2022-08-09T13:29:28.625Z,44.34
2022-08-09T13:32:49.732Z,44.65
2022-08-09T13:36:41.768Z,43.46
2022-08-09T13:41:51.142Z,42.66
2022-08-09T13:42:36.507Z,42.69
2022-08-09T13:46:44.680Z,42.83
2022-08-09T13:49:02.083Z,42.44
2022-08-09T13:52:08.990Z,43.23
2022-08-09T13:55:13.718Z,42.64
2022-08-09T13:58:15.828Z,42.37
2022-08-09T14:01:56.185Z,41.81
2022-08-09T14:04:59.844Z,42.23
2022-08-09T14:08:04.321Z,43.12
2022-08-09T14:11:16.356Z,42.51
2022-08-09T14:14:23.538Z,42.41
2022-08-09T14:17:53.230Z,42.71
2022-08-09T14:21:00.995Z,43.33
2022-08-09T14:24:10.516Z,42.59
2022-08-09T14:27:20.932Z,42.09
2022-08-09T14:30:36.597Z,42.50
2022-08-09T14:33:52.238Z,42.37
2022-08-09T14:37:11.681Z,42.34
2022-08-09T14:40:13.870Z,42.33
2022-08-09T14:43:24.338Z,40.96
2022-08-09T14:46:58.523Z,41.05
2022-08-09T14:50:02.174Z,41.13
2022-08-09T14:53:11.632Z,41.06
2022-08-09T14:56:13.848Z,41.90
2022-08-09T14:59:15.867Z,41.25
2022-08-09T15:02:20.486Z,41.91
2022-08-09T15:05:24.222Z,41.54
2022-08-09T15:08:26.693Z,41.74
2022-08-09T15:11:32.234Z,42.60
2022-08-09T15:14:34.211Z,41.82
2022-08-09T15:17:41.509Z,41.95
2022-08-09T15:21:57.455Z,42.94
2022-08-09T15:24:12.867Z,40.90
2022-08-09T15:27:15.749Z,41.98
2022-08-09T15:30:56.558Z,42.36
2022-08-09T15:34:17.463Z,42.19
2022-08-09T15:37:04.119Z,41.52
2022-08-09T15:40:11.616Z,41.69
2022-08-09T15:43:14.284Z,41.83
2022-08-09T15:46:32.628Z,42.29
2022-08-09T15:49:36.518Z,41.15
2022-08-09T15:52:41.778Z,41.02
2022-08-09T15:56:20.973Z,41.05
2022-08-09T15:59:18.576Z,41.32
2022-08-09T16:02:27.175Z,40.91
2022-08-09T16:05:47.008Z,41.14
2022-08-09T16:08:52.636Z,41.36
2022-08-09T16:11:56.981Z,41.18
2022-08-09T16:15:02.362Z,40.88
2022-08-09T16:18:04.942Z,41.23
2022-08-09T16:21:06.719Z,41.29
2022-08-09T16:24:30.317Z,41.49
2022-08-09T16:27:36.022Z,42.03
2022-08-09T16:30:38.144Z,42.22
2022-08-09T16:33:46.322Z,41.69
2022-08-09T16:36:48.226Z,41.97
2022-08-09T16:40:04.806Z,42.59
2022-08-09T16:43:10.752Z,42.81
2022-08-09T16:46:21.359Z,42.41
2022-08-09T16:50:29.778Z,42.26
2022-08-09T16:52:45.312Z,42.88
2022-08-09T16:55:59.924Z,43.18
2022-08-09T16:59:06.494Z,43.53
2022-08-09T17:02:13.825Z,43.12
2022-08-09T17:05:20.140Z,43.36
2022-08-09T17:08:46.753Z,43.25
2022-08-09T17:11:48.189Z,43.48
2022-08-09T17:14:58.336Z,43.15
2022-08-09T17:18:00.810Z,43.51
2022-08-09T17:21:02.686Z,43.68
2022-08-09T17:24:21.101Z,43.39
2022-08-09T17:27:28.006Z,43.60
2022-08-09T17:30:30.748Z,43.18
2022-08-09T17:33:37.759Z,44.33
2022-08-09T17:36:39.787Z,44.05
2022-08-09T17:39:57.842Z,44.46
2022-08-09T17:43:10.861Z,44.23
2022-08-09T17:46:34.081Z,44.49
2022-08-09T17:49:36.611Z,44.33
2022-08-09T17:52:56.067Z,44.96
2022-08-09T17:56:04.621Z,44.63
2022-08-09T17:59:11.703Z,44.46
2022-08-09T18:02:21.563Z,44.65
2022-08-09T18:05:38.814Z,44.87
2022-08-09T18:08:47.853Z,44.96
2022-08-09T18:12:14.885Z,45.06
2022-08-09T18:15:16.300Z,46.16
2022-08-09T18:18:25.268Z,46.37
2022-08-09T18:21:28.007Z,46.08
2022-08-09T18:24:33.856Z,46.41
2022-08-09T18:28:04.160Z,46.78
2022-08-09T18:30:58.783Z,47.32
2022-08-09T18:34:00.474Z,47.45
2022-08-09T18:37:02.365Z,47.82
2022-08-09T18:40:06.341Z,48.04
2022-08-09T18:43:10.924Z,48.17
2022-08-09T18:46:47.504Z,48.56
2022-08-09T18:49:43.120Z,49.15
2022-08-09T18:52:46.814Z,49.14
2022-08-09T18:55:57.146Z,49.31
2022-08-09T18:59:07.000Z,48.94
2022-08-09T19:02:10.357Z,49.00
2022-08-09T19:05:28.721Z,49.39
2022-08-09T19:08:38.851Z,49.62
2022-08-09T19:11:40.801Z,49.79
2022-08-09T19:14:43.299Z,49.66
2022-08-09T19:17:54.560Z,49.78
2022-08-09T19:20:58.747Z,49.92
2022-08-09T19:24:32.368Z,50.29
2022-08-09T19:27:25.925Z,50.44
2022-08-09T19:30:32.335Z,50.41
2022-08-09T19:33:38.578Z,50.28
2022-08-09T19:36:40.404Z,50.62
2022-08-09T19:40:05.078Z,50.72
2022-08-09T19:43:09.991Z,50.49
2022-08-09T19:46:34.260Z,50.70
2022-08-09T19:50:10.078Z,50.40
2022-08-09T19:53:10.572Z,50.00
2022-08-09T19:56:15.361Z,50.33
2022-08-09T19:59:40.477Z,49.76
2022-08-09T20:04:16.767Z,49.92
2022-08-09T20:06:20.938Z,50.31
2022-08-09T20:09:44.946Z,50.70
2022-08-09T20:12:47.629Z,50.82
2022-08-09T20:16:37.051Z,51.10
2022-08-09T20:19:47.401Z,51.05
2022-08-09T20:22:38.003Z,50.95
2022-08-09T20:25:51.293Z,51.04
2022-08-09T20:28:56.391Z,51.18
2022-08-09T20:32:31.396Z,51.36
2022-08-09T20:35:22.601Z,51.54
2022-08-09T20:38:33.948Z,51.79
2022-08-09T20:41:50.266Z,51.88
2022-08-09T20:45:04.634Z,52.08
2022-08-09T20:48:21.159Z,52.42
2022-08-09T20:51:23.636Z,52.50
2022-08-09T20:54:30.080Z,52.53
2022-08-09T20:57:32.114Z,53.21
2022-08-09T21:00:35.198Z,53.43
2022-08-09T21:03:39.488Z,53.33
2022-08-09T21:06:59.034Z,52.83
2022-08-09T21:10:17.422Z,52.06
2022-08-09T21:13:21.090Z,51.93
2022-08-09T21:16:30.285Z,51.72
2022-08-09T21:20:19.142Z,51.74
2022-08-09T21:22:55.226Z,51.98
2022-08-09T21:26:00.209Z,51.90
2022-08-09T21:29:11.739Z,52.68
2022-08-09T21:32:18.441Z,52.58
2022-08-09T21:35:24.452Z,52.57
2022-08-09T21:38:31.154Z,52.91
2022-08-09T21:42:05.436Z,52.99
2022-08-09T21:45:00.121Z,53.16
2022-08-09T21:48:01.975Z,52.98
2022-08-09T21:51:04.044Z,53.10
2022-08-09T21:54:16.391Z,53.22
2022-08-09T21:57:37.661Z,53.40
2022-08-09T22:00:44.594Z,52.96
2022-08-09T22:03:59.817Z,52.82
2022-08-09T22:07:04.651Z,52.83
2022-08-09T22:10:07.722Z,52.89
2022-08-09T22:13:11.685Z,52.87
2022-08-09T22:16:14.827Z,53.39
2022-08-09T22:19:58.762Z,53.24
2022-08-09T22:22:49.680Z,53.45
2022-08-09T22:26:08.138Z,53.36
2022-08-09T22:29:14.629Z,53.45
2022-08-09T22:32:29.957Z,53.47
2022-08-09T22:36:02.676Z,53.66
2022-08-09T22:38:55.327Z,53.82
2022-08-09T22:41:57.447Z,54.03
2022-08-09T22:48:13.802Z,54.48
2022-08-09T22:48:35.522Z,54.68
2022-08-09T22:51:43.333Z,54.99
2022-08-09T22:54:51.897Z,55.09
2022-08-09T22:57:59.961Z,54.83
2022-08-09T23:01:05.897Z,54.91
2022-08-09T23:04:08.100Z,55.08
2022-08-09T23:08:16.341Z,55.27
2022-08-09T23:10:54.762Z,54.80
2022-08-09T23:13:56.560Z,54.65
2022-08-09T23:16:59.760Z,54.68
2022-08-09T23:20:06.791Z,54.56
2022-08-09T23:23:10.612Z,54.33
2022-08-09T23:26:12.381Z,54.25
2022-08-09T23:29:17.136Z,54.11
2022-08-09T23:32:22.257Z,54.19
2022-08-09T23:35:25.438Z,54.25
2022-08-09T23:38:27.349Z,54.22
2022-08-09T23:41:29.943Z,54.34
2022-08-09T23:44:32.305Z,54.29
2022-08-09T23:47:35.579Z,54.09
2022-08-09T23:50:37.537Z,53.97
2022-08-09T23:53:41.418Z,53.92
2022-08-09T23:56:54.281Z,53.83
